sensor_id;sensor_type;location;lat;lon;timestamp;P1;durP1;ratioP1;P2;durP2;ratioP2
55692;SDS011;41590;53.366;5.212;2022-07-15T00:00:09;5.30;;;1.27;;
55692;SDS011;41590;53.366;5.212;2022-07-15T00:02:36;9.73;;;1.23;;
55692;SDS011;41590;53.366;5.212;2022-07-15T00:05:07;6.60;;;1.02;;
55692;SDS011;41590;53.366;5.212;2022-07-15T00:10:11;8.77;;;1.15;;
55692;SDS011;41590;53.366;5.212;2022-07-15T00:12:51;9.95;;;1.67;;
55692;SDS011;41590;53.366;5.212;2022-07-15T00:15:20;8.15;;;1.10;;
55692;SDS011;41590;53.366;5.212;2022-07-15T00:17:48;6.10;;;0.95;;
55692;SDS011;41590;53.366;5.212;2022-07-15T00:20:16;8.85;;;0.95;;
55692;SDS011;41590;53.366;5.212;2022-07-15T00:22:45;7.80;;;1.30;;
55692;SDS011;41590;53.366;5.212;2022-07-15T00:25:12;6.72;;;1.02;;
55692;SDS011;41590;53.366;5.212;2022-07-15T00:27:51;8.50;;;1.27;;
55692;SDS011;41590;53.366;5.212;2022-07-15T00:30:22;7.28;;;1.23;;
55692;SDS011;41590;53.366;5.212;2022-07-15T00:32:51;13.18;;;1.08;;
55692;SDS011;41590;53.366;5.212;2022-07-15T00:35:17;8.30;;;1.48;;
55692;SDS011;41590;53.366;5.212;2022-07-15T00:37:42;8.13;;;1.00;;
55692;SDS011;41590;53.366;5.212;2022-07-15T00:40:08;9.35;;;1.02;;
55692;SDS011;41590;53.366;5.212;2022-07-15T00:42:35;5.93;;;0.90;;
55692;SDS011;41590;53.366;5.212;2022-07-15T00:45:15;8.70;;;0.90;;
55692;SDS011;41590;53.366;5.212;2022-07-15T00:50:13;3.95;;;0.70;;
55692;SDS011;41590;53.366;5.212;2022-07-15T00:52:48;6.15;;;1.23;;
55692;SDS011;41590;53.366;5.212;2022-07-15T00:55:19;9.55;;;1.02;;
55692;SDS011;41590;53.366;5.212;2022-07-15T00:57:47;4.00;;;0.70;;
55692;SDS011;41590;53.366;5.212;2022-07-15T01:00:15;7.05;;;0.88;;
55692;SDS011;41590;53.366;5.212;2022-07-15T01:02:52;5.70;;;0.70;;
55692;SDS011;41590;53.366;5.212;2022-07-15T01:05:20;4.05;;;0.60;;
55692;SDS011;41590;53.366;5.212;2022-07-15T01:07:53;5.60;;;1.00;;
55692;SDS011;41590;53.366;5.212;2022-07-15T01:10:20;6.70;;;0.40;;
55692;SDS011;41590;53.366;5.212;2022-07-15T01:12:48;3.85;;;0.80;;
55692;SDS011;41590;53.366;5.212;2022-07-15T01:15:16;3.80;;;0.63;;
55692;SDS011;41590;53.366;5.212;2022-07-15T01:17:43;2.80;;;0.52;;
55692;SDS011;41590;53.366;5.212;2022-07-15T01:20:13;4.88;;;0.80;;
55692;SDS011;41590;53.366;5.212;2022-07-15T01:22:43;5.72;;;0.50;;
55692;SDS011;41590;53.366;5.212;2022-07-15T01:25:10;3.03;;;0.50;;
55692;SDS011;41590;53.366;5.212;2022-07-15T01:27:36;2.17;;;0.40;;
55692;SDS011;41590;53.366;5.212;2022-07-15T01:30:03;2.33;;;0.30;;
55692;SDS011;41590;53.366;5.212;2022-07-15T01:32:31;2.38;;;0.30;;
55692;SDS011;41590;53.366;5.212;2022-07-15T01:34:57;1.88;;;0.43;;
55692;SDS011;41590;53.366;5.212;2022-07-15T01:39:56;4.20;;;0.30;;
55692;SDS011;41590;53.366;5.212;2022-07-15T01:44:56;3.67;;;0.30;;
55692;SDS011;41590;53.366;5.212;2022-07-15T01:47:22;2.67;;;0.22;;
55692;SDS011;41590;53.366;5.212;2022-07-15T01:49:48;8.30;;;0.40;;
55692;SDS011;41590;53.366;5.212;2022-07-15T01:52:13;3.17;;;0.30;;
55692;SDS011;41590;53.366;5.212;2022-07-15T01:54:39;2.40;;;0.40;;
55692;SDS011;41590;53.366;5.212;2022-07-15T02:00:25;5.55;;;0.35;;
55692;SDS011;41590;53.366;5.212;2022-07-15T02:02:51;3.70;;;0.40;;
55692;SDS011;41590;53.366;5.212;2022-07-15T02:05:16;3.78;;;0.20;;
55692;SDS011;41590;53.366;5.212;2022-07-15T02:07:44;2.65;;;0.35;;
55692;SDS011;41590;53.366;5.212;2022-07-15T02:10:12;3.63;;;0.30;;
55692;SDS011;41590;53.366;5.212;2022-07-15T02:12:37;2.92;;;0.50;;
55692;SDS011;41590;53.366;5.212;2022-07-15T02:17:33;6.68;;;0.60;;
55692;SDS011;41590;53.366;5.212;2022-07-15T02:20:00;5.10;;;0.93;;
55692;SDS011;41590;53.366;5.212;2022-07-15T02:22:27;1.75;;;0.30;;
55692;SDS011;41590;53.366;5.212;2022-07-15T02:24:53;4.80;;;0.60;;
55692;SDS011;41590;53.366;5.212;2022-07-15T02:27:18;3.70;;;0.40;;
55692;SDS011;41590;53.366;5.212;2022-07-15T02:29:53;5.57;;;0.45;;
55692;SDS011;41590;53.366;5.212;2022-07-15T02:32:31;4.85;;;0.32;;
55692;SDS011;41590;53.366;5.212;2022-07-15T02:37:25;2.60;;;0.60;;
55692;SDS011;41590;53.366;5.212;2022-07-15T02:39:51;5.40;;;0.70;;
55692;SDS011;41590;53.366;5.212;2022-07-15T02:44:46;2.08;;;0.40;;
55692;SDS011;41590;53.366;5.212;2022-07-15T02:47:14;4.63;;;0.50;;
55692;SDS011;41590;53.366;5.212;2022-07-15T02:49:43;7.07;;;1.20;;
55692;SDS011;41590;53.366;5.212;2022-07-15T02:52:09;3.75;;;0.73;;
55692;SDS011;41590;53.366;5.212;2022-07-15T02:54:38;3.08;;;0.35;;
55692;SDS011;41590;53.366;5.212;2022-07-15T02:57:04;1.48;;;0.40;;
55692;SDS011;41590;53.366;5.212;2022-07-15T03:02:57;3.15;;;0.35;;
55692;SDS011;41590;53.366;5.212;2022-07-15T03:05:30;2.58;;;0.40;;
55692;SDS011;41590;53.366;5.212;2022-07-15T03:07:56;3.95;;;0.52;;
55692;SDS011;41590;53.366;5.212;2022-07-15T03:10:22;6.82;;;0.50;;
55692;SDS011;41590;53.366;5.212;2022-07-15T03:12:54;5.18;;;0.43;;
55692;SDS011;41590;53.366;5.212;2022-07-15T03:15:21;1.65;;;0.30;;
55692;SDS011;41590;53.366;5.212;2022-07-15T03:17:47;5.22;;;0.70;;
55692;SDS011;41590;53.366;5.212;2022-07-15T03:20:13;1.88;;;0.63;;
55692;SDS011;41590;53.366;5.212;2022-07-15T03:22:40;3.65;;;0.40;;
55692;SDS011;41590;53.366;5.212;2022-07-15T03:25:07;4.18;;;0.50;;
55692;SDS011;41590;53.366;5.212;2022-07-15T03:27:33;2.63;;;0.35;;
55692;SDS011;41590;53.366;5.212;2022-07-15T03:30:00;2.47;;;0.35;;
55692;SDS011;41590;53.366;5.212;2022-07-15T03:32:26;5.10;;;0.70;;
55692;SDS011;41590;53.366;5.212;2022-07-15T03:34:52;7.65;;;0.70;;
55692;SDS011;41590;53.366;5.212;2022-07-15T03:37:18;5.20;;;0.65;;
55692;SDS011;41590;53.366;5.212;2022-07-15T03:39:46;4.93;;;0.50;;
55692;SDS011;41590;53.366;5.212;2022-07-15T03:42:11;2.47;;;0.32;;
55692;SDS011;41590;53.366;5.212;2022-07-15T03:44:37;4.05;;;0.55;;
55692;SDS011;41590;53.366;5.212;2022-07-15T03:47:03;5.70;;;0.60;;
55692;SDS011;41590;53.366;5.212;2022-07-15T03:49:30;4.85;;;0.57;;
55692;SDS011;41590;53.366;5.212;2022-07-15T03:51:56;5.72;;;0.47;;
55692;SDS011;41590;53.366;5.212;2022-07-15T04:03:00;4.88;;;0.60;;
55692;SDS011;41590;53.366;5.212;2022-07-15T04:08:33;6.70;;;0.60;;
55692;SDS011;41590;53.366;5.212;2022-07-15T04:11:00;5.90;;;0.65;;
55692;SDS011;41590;53.366;5.212;2022-07-15T04:13:25;5.93;;;0.70;;
55692;SDS011;41590;53.366;5.212;2022-07-15T04:15:52;6.40;;;0.65;;
55692;SDS011;41590;53.366;5.212;2022-07-15T04:18:19;4.68;;;0.45;;
55692;SDS011;41590;53.366;5.212;2022-07-15T04:20:47;3.92;;;0.77;;
55692;SDS011;41590;53.366;5.212;2022-07-15T04:23:14;5.40;;;0.47;;
55692;SDS011;41590;53.366;5.212;2022-07-15T04:25:43;9.27;;;0.55;;
55692;SDS011;41590;53.366;5.212;2022-07-15T04:28:08;4.65;;;0.50;;
55692;SDS011;41590;53.366;5.212;2022-07-15T04:33:06;3.97;;;0.40;;
55692;SDS011;41590;53.366;5.212;2022-07-15T04:35:33;4.28;;;1.08;;
55692;SDS011;41590;53.366;5.212;2022-07-15T04:37:59;3.17;;;0.30;;
55692;SDS011;41590;53.366;5.212;2022-07-15T04:40:27;6.18;;;0.70;;
55692;SDS011;41590;53.366;5.212;2022-07-15T04:42:53;4.47;;;0.50;;
55692;SDS011;41590;53.366;5.212;2022-07-15T04:45:19;2.90;;;0.40;;
55692;SDS011;41590;53.366;5.212;2022-07-15T04:50:13;6.13;;;0.55;;
55692;SDS011;41590;53.366;5.212;2022-07-15T04:52:57;7.25;;;0.52;;
55692;SDS011;41590;53.366;5.212;2022-07-15T04:55:24;2.10;;;0.30;;
55692;SDS011;41590;53.366;5.212;2022-07-15T04:57:51;6.57;;;0.70;;
55692;SDS011;41590;53.366;5.212;2022-07-15T05:00:17;3.70;;;0.50;;
55692;SDS011;41590;53.366;5.212;2022-07-15T05:02:43;2.00;;;0.43;;
55692;SDS011;41590;53.366;5.212;2022-07-15T05:05:10;4.40;;;0.70;;
55692;SDS011;41590;53.366;5.212;2022-07-15T05:07:37;2.33;;;0.32;;
55692;SDS011;41590;53.366;5.212;2022-07-15T05:13:25;4.80;;;0.55;;
55692;SDS011;41590;53.366;5.212;2022-07-15T05:15:53;8.68;;;0.77;;
55692;SDS011;41590;53.366;5.212;2022-07-15T05:18:19;4.75;;;0.50;;
55692;SDS011;41590;53.366;5.212;2022-07-15T05:20:45;3.00;;;0.50;;
55692;SDS011;41590;53.366;5.212;2022-07-15T05:25:54;1.95;;;0.32;;
55692;SDS011;41590;53.366;5.212;2022-07-15T05:31:12;3.45;;;0.50;;
55692;SDS011;41590;53.366;5.212;2022-07-15T05:33:38;8.27;;;0.60;;
55692;SDS011;41590;53.366;5.212;2022-07-15T05:36:04;4.88;;;0.68;;
55692;SDS011;41590;53.366;5.212;2022-07-15T05:38:30;4.28;;;0.35;;
55692;SDS011;41590;53.366;5.212;2022-07-15T05:40:56;6.47;;;0.40;;
55692;SDS011;41590;53.366;5.212;2022-07-15T05:43:21;1.17;;;0.32;;
55692;SDS011;41590;53.366;5.212;2022-07-15T05:45:52;2.55;;;0.30;;
55692;SDS011;41590;53.366;5.212;2022-07-15T05:48:19;3.15;;;0.30;;
55692;SDS011;41590;53.366;5.212;2022-07-15T05:50:45;2.65;;;0.45;;
55692;SDS011;41590;53.366;5.212;2022-07-15T05:53:11;2.05;;;0.30;;
55692;SDS011;41590;53.366;5.212;2022-07-15T05:55:37;2.50;;;0.20;;
55692;SDS011;41590;53.366;5.212;2022-07-15T05:58:06;2.30;;;0.40;;
55692;SDS011;41590;53.366;5.212;2022-07-15T06:00:32;4.53;;;0.47;;
55692;SDS011;41590;53.366;5.212;2022-07-15T06:03:00;3.45;;;0.45;;
55692;SDS011;41590;53.366;5.212;2022-07-15T06:08:50;1.38;;;0.20;;
55692;SDS011;41590;53.366;5.212;2022-07-15T06:11:15;4.40;;;0.60;;
55692;SDS011;41590;53.366;5.212;2022-07-15T06:13:50;2.88;;;0.50;;
55692;SDS011;41590;53.366;5.212;2022-07-15T06:18:45;1.85;;;0.47;;
55692;SDS011;41590;53.366;5.212;2022-07-15T06:21:15;4.25;;;0.60;;
55692;SDS011;41590;53.366;5.212;2022-07-15T06:23:42;3.10;;;0.30;;
55692;SDS011;41590;53.366;5.212;2022-07-15T06:26:08;2.70;;;0.32;;
55692;SDS011;41590;53.366;5.212;2022-07-15T06:28:34;2.03;;;0.28;;
55692;SDS011;41590;53.366;5.212;2022-07-15T06:31:02;4.88;;;0.50;;
55692;SDS011;41590;53.366;5.212;2022-07-15T06:33:29;1.08;;;0.30;;
55692;SDS011;41590;53.366;5.212;2022-07-15T06:35:57;4.05;;;0.40;;
55692;SDS011;41590;53.366;5.212;2022-07-15T06:38:23;2.50;;;0.30;;
55692;SDS011;41590;53.366;5.212;2022-07-15T06:40:51;3.53;;;0.30;;
55692;SDS011;41590;53.366;5.212;2022-07-15T06:43:17;4.53;;;0.50;;
55692;SDS011;41590;53.366;5.212;2022-07-15T06:45:44;3.88;;;0.50;;
55692;SDS011;41590;53.366;5.212;2022-07-15T06:48:11;8.30;;;1.05;;
55692;SDS011;41590;53.366;5.212;2022-07-15T06:50:37;3.65;;;0.40;;
55692;SDS011;41590;53.366;5.212;2022-07-15T06:58:21;2.05;;;0.20;;
55692;SDS011;41590;53.366;5.212;2022-07-15T07:00:47;2.28;;;0.30;;
55692;SDS011;41590;53.366;5.212;2022-07-15T07:03:13;1.63;;;0.20;;
55692;SDS011;41590;53.366;5.212;2022-07-15T07:05:53;3.05;;;0.30;;
55692;SDS011;41590;53.366;5.212;2022-07-15T07:08:20;8.07;;;0.40;;
55692;SDS011;41590;53.366;5.212;2022-07-15T07:10:46;3.30;;;0.57;;
55692;SDS011;41590;53.366;5.212;2022-07-15T07:13:11;3.28;;;0.50;;
55692;SDS011;41590;53.366;5.212;2022-07-15T07:15:38;2.15;;;0.50;;
55692;SDS011;41590;53.366;5.212;2022-07-15T07:18:03;3.15;;;0.73;;
55692;SDS011;41590;53.366;5.212;2022-07-15T07:23:41;2.92;;;0.43;;
55692;SDS011;41590;53.366;5.212;2022-07-15T07:26:08;2.38;;;0.52;;
55692;SDS011;41590;53.366;5.212;2022-07-15T07:28:40;2.33;;;0.50;;
55692;SDS011;41590;53.366;5.212;2022-07-15T07:31:11;3.40;;;0.40;;
55692;SDS011;41590;53.366;5.212;2022-07-15T07:33:46;3.00;;;0.90;;
55692;SDS011;41590;53.366;5.212;2022-07-15T07:36:20;1.15;;;0.25;;
55692;SDS011;41590;53.366;5.212;2022-07-15T07:38:46;3.47;;;0.70;;
55692;SDS011;41590;53.366;5.212;2022-07-15T07:43:43;7.43;;;0.75;;
55692;SDS011;41590;53.366;5.212;2022-07-15T07:48:38;3.22;;;0.50;;
55692;SDS011;41590;53.366;5.212;2022-07-15T07:51:11;7.25;;;1.70;;
55692;SDS011;41590;53.366;5.212;2022-07-15T07:53:36;2.88;;;0.70;;
55692;SDS011;41590;53.366;5.212;2022-07-15T07:56:13;0.95;;;0.28;;
55692;SDS011;41590;53.366;5.212;2022-07-15T07:58:38;1.33;;;0.45;;
55692;SDS011;41590;53.366;5.212;2022-07-15T08:01:06;2.58;;;0.68;;
55692;SDS011;41590;53.366;5.212;2022-07-15T08:03:41;3.97;;;0.65;;
55692;SDS011;41590;53.366;5.212;2022-07-15T08:08:56;4.63;;;0.60;;
55692;SDS011;41590;53.366;5.212;2022-07-15T08:11:22;3.53;;;0.50;;
55692;SDS011;41590;53.366;5.212;2022-07-15T08:13:55;3.67;;;0.50;;
55692;SDS011;41590;53.366;5.212;2022-07-15T08:18:52;2.63;;;0.38;;
55692;SDS011;41590;53.366;5.212;2022-07-15T08:21:31;3.88;;;0.40;;
55692;SDS011;41590;53.366;5.212;2022-07-15T08:27:41;1.98;;;0.45;;
55692;SDS011;41590;53.366;5.212;2022-07-15T08:30:22;2.60;;;0.50;;
55692;SDS011;41590;53.366;5.212;2022-07-15T08:32:50;4.38;;;0.50;;
55692;SDS011;41590;53.366;5.212;2022-07-15T08:38:13;3.85;;;0.70;;
55692;SDS011;41590;53.366;5.212;2022-07-15T08:40:51;4.50;;;0.70;;
55692;SDS011;41590;53.366;5.212;2022-07-15T08:49:02;1.85;;;0.40;;
55692;SDS011;41590;53.366;5.212;2022-07-15T08:54:50;3.75;;;0.45;;
55692;SDS011;41590;53.366;5.212;2022-07-15T08:57:21;2.25;;;0.60;;
55692;SDS011;41590;53.366;5.212;2022-07-15T08:59:48;4.45;;;0.57;;
55692;SDS011;41590;53.366;5.212;2022-07-15T09:02:18;3.50;;;0.52;;
55692;SDS011;41590;53.366;5.212;2022-07-15T09:10:18;4.40;;;0.68;;
55692;SDS011;41590;53.366;5.212;2022-07-15T09:12:48;6.18;;;0.68;;
55692;SDS011;41590;53.366;5.212;2022-07-15T09:15:29;3.05;;;0.77;;
55692;SDS011;41590;53.366;5.212;2022-07-15T09:18:02;1.50;;;0.50;;
55692;SDS011;41590;53.366;5.212;2022-07-15T09:20:36;2.80;;;0.50;;
55692;SDS011;41590;53.366;5.212;2022-07-15T09:23:05;2.17;;;0.43;;
55692;SDS011;41590;53.366;5.212;2022-07-15T09:25:31;2.88;;;0.75;;
55692;SDS011;41590;53.366;5.212;2022-07-15T09:28:09;2.22;;;0.60;;
55692;SDS011;41590;53.366;5.212;2022-07-15T09:30:46;5.10;;;0.52;;
55692;SDS011;41590;53.366;5.212;2022-07-15T09:36:31;2.08;;;0.45;;
55692;SDS011;41590;53.366;5.212;2022-07-15T09:38:59;1.75;;;0.50;;
55692;SDS011;41590;53.366;5.212;2022-07-15T09:41:28;2.40;;;0.50;;
55692;SDS011;41590;53.366;5.212;2022-07-15T09:44:01;3.38;;;0.45;;
55692;SDS011;41590;53.366;5.212;2022-07-15T09:46:43;6.57;;;1.23;;
55692;SDS011;41590;53.366;5.212;2022-07-15T09:49:14;3.22;;;0.43;;
55692;SDS011;41590;53.366;5.212;2022-07-15T09:52:10;1.25;;;0.50;;
55692;SDS011;41590;53.366;5.212;2022-07-15T09:54:42;6.65;;;0.73;;
55692;SDS011;41590;53.366;5.212;2022-07-15T09:57:18;4.22;;;0.60;;
55692;SDS011;41590;53.366;5.212;2022-07-15T10:02:17;4.78;;;0.90;;
55692;SDS011;41590;53.366;5.212;2022-07-15T10:04:45;13.75;;;1.58;;
55692;SDS011;41590;53.366;5.212;2022-07-15T10:07:25;2.83;;;0.47;;
55692;SDS011;41590;53.366;5.212;2022-07-15T10:09:54;7.82;;;0.80;;
55692;SDS011;41590;53.366;5.212;2022-07-15T10:12:21;4.18;;;0.73;;
55692;SDS011;41590;53.366;5.212;2022-07-15T10:18:01;2.05;;;0.50;;
55692;SDS011;41590;53.366;5.212;2022-07-15T10:24:18;3.13;;;0.57;;
55692;SDS011;41590;53.366;5.212;2022-07-15T10:26:28;3.60;;;0.80;;
55692;SDS011;41590;53.366;5.212;2022-07-15T10:29:21;1.08;;;0.40;;
55692;SDS011;41590;53.366;5.212;2022-07-15T10:31:55;7.03;;;0.70;;
55692;SDS011;41590;53.366;5.212;2022-07-15T10:34:36;2.45;;;0.50;;
55692;SDS011;41590;53.366;5.212;2022-07-15T10:37:15;3.10;;;1.05;;
55692;SDS011;41590;53.366;5.212;2022-07-15T10:39:58;4.38;;;0.68;;
55692;SDS011;41590;53.366;5.212;2022-07-15T10:45:36;6.45;;;0.52;;
55692;SDS011;41590;53.366;5.212;2022-07-15T10:50:58;4.53;;;0.70;;
55692;SDS011;41590;53.366;5.212;2022-07-15T10:53:28;1.35;;;0.60;;
55692;SDS011;41590;53.366;5.212;2022-07-15T10:55:54;1.83;;;0.50;;
55692;SDS011;41590;53.366;5.212;2022-07-15T11:00:51;3.40;;;1.13;;
55692;SDS011;41590;53.366;5.212;2022-07-15T11:03:18;2.50;;;0.68;;
55692;SDS011;41590;53.366;5.212;2022-07-15T11:11:47;2.88;;;0.45;;
55692;SDS011;41590;53.366;5.212;2022-07-15T11:22:52;4.75;;;0.88;;
55692;SDS011;41590;53.366;5.212;2022-07-15T11:25:30;4.38;;;0.50;;
55692;SDS011;41590;53.366;5.212;2022-07-15T11:28:03;1.58;;;0.45;;
55692;SDS011;41590;53.366;5.212;2022-07-15T11:30:45;3.22;;;0.50;;
55692;SDS011;41590;53.366;5.212;2022-07-15T11:33:16;2.90;;;0.55;;
55692;SDS011;41590;53.366;5.212;2022-07-15T11:38:13;2.55;;;0.80;;
55692;SDS011;41590;53.366;5.212;2022-07-15T11:40:44;4.00;;;0.60;;
55692;SDS011;41590;53.366;5.212;2022-07-15T11:43:30;1.92;;;0.50;;
55692;SDS011;41590;53.366;5.212;2022-07-15T11:46:16;2.70;;;0.60;;
55692;SDS011;41590;53.366;5.212;2022-07-15T11:48:42;4.35;;;0.80;;
55692;SDS011;41590;53.366;5.212;2022-07-15T11:51:08;2.65;;;0.82;;
55692;SDS011;41590;53.366;5.212;2022-07-15T11:53:43;2.85;;;0.50;;
55692;SDS011;41590;53.366;5.212;2022-07-15T11:56:12;2.90;;;0.60;;
55692;SDS011;41590;53.366;5.212;2022-07-15T11:58:41;3.95;;;0.60;;
55692;SDS011;41590;53.366;5.212;2022-07-15T12:01:09;2.67;;;0.65;;
55692;SDS011;41590;53.366;5.212;2022-07-15T12:03:42;4.63;;;0.85;;
55692;SDS011;41590;53.366;5.212;2022-07-15T12:06:13;2.97;;;0.52;;
55692;SDS011;41590;53.366;5.212;2022-07-15T12:08:41;4.07;;;0.90;;
55692;SDS011;41590;53.366;5.212;2022-07-15T12:11:18;3.40;;;0.70;;
55692;SDS011;41590;53.366;5.212;2022-07-15T12:13:58;4.70;;;1.23;;
55692;SDS011;41590;53.366;5.212;2022-07-15T12:16:28;3.85;;;0.63;;
55692;SDS011;41590;53.366;5.212;2022-07-15T12:19:03;4.85;;;0.70;;
55692;SDS011;41590;53.366;5.212;2022-07-15T12:21:35;3.33;;;1.02;;
55692;SDS011;41590;53.366;5.212;2022-07-15T12:24:06;2.95;;;0.90;;
55692;SDS011;41590;53.366;5.212;2022-07-15T12:26:37;6.07;;;0.95;;
55692;SDS011;41590;53.366;5.212;2022-07-15T12:29:06;5.93;;;1.00;;
55692;SDS011;41590;53.366;5.212;2022-07-15T12:31:35;5.72;;;1.10;;
55692;SDS011;41590;53.366;5.212;2022-07-15T12:34:03;3.28;;;0.80;;
55692;SDS011;41590;53.366;5.212;2022-07-15T12:36:31;2.90;;;0.80;;
55692;SDS011;41590;53.366;5.212;2022-07-15T12:41:38;4.35;;;0.88;;
55692;SDS011;41590;53.366;5.212;2022-07-15T12:44:06;5.38;;;1.02;;
55692;SDS011;41590;53.366;5.212;2022-07-15T12:46:50;4.53;;;0.90;;
55692;SDS011;41590;53.366;5.212;2022-07-15T12:52:58;4.45;;;1.10;;
55692;SDS011;41590;53.366;5.212;2022-07-15T12:59:06;3.90;;;1.13;;
55692;SDS011;41590;53.366;5.212;2022-07-15T13:01:32;7.10;;;1.40;;
55692;SDS011;41590;53.366;5.212;2022-07-15T13:03:58;4.47;;;1.10;;
55692;SDS011;41590;53.366;5.212;2022-07-15T13:06:25;5.40;;;1.55;;
55692;SDS011;41590;53.366;5.212;2022-07-15T13:08:51;4.35;;;1.00;;
55692;SDS011;41590;53.366;5.212;2022-07-15T13:11:17;6.40;;;1.27;;
55692;SDS011;41590;53.366;5.212;2022-07-15T13:13:44;5.85;;;1.05;;
55692;SDS011;41590;53.366;5.212;2022-07-15T13:16:09;7.95;;;1.42;;
55692;SDS011;41590;53.366;5.212;2022-07-15T13:18:35;3.75;;;1.17;;
55692;SDS011;41590;53.366;5.212;2022-07-15T13:21:02;7.35;;;1.60;;
55692;SDS011;41590;53.366;5.212;2022-07-15T13:23:27;3.63;;;1.13;;
55692;SDS011;41590;53.366;5.212;2022-07-15T13:25:53;7.03;;;1.40;;
55692;SDS011;41590;53.366;5.212;2022-07-15T13:28:19;2.95;;;1.00;;
55692;SDS011;41590;53.366;5.212;2022-07-15T13:30:50;6.72;;;0.80;;
55692;SDS011;41590;53.366;5.212;2022-07-15T13:33:17;4.78;;;1.17;;
55692;SDS011;41590;53.366;5.212;2022-07-15T13:35:43;5.57;;;1.10;;
55692;SDS011;41590;53.366;5.212;2022-07-15T13:38:08;5.60;;;0.85;;
55692;SDS011;41590;53.366;5.212;2022-07-15T13:40:36;5.13;;;1.42;;
55692;SDS011;41590;53.366;5.212;2022-07-15T13:43:03;5.32;;;1.45;;
55692;SDS011;41590;53.366;5.212;2022-07-15T13:45:29;4.97;;;1.30;;
55692;SDS011;41590;53.366;5.212;2022-07-15T13:47:55;6.40;;;1.10;;
55692;SDS011;41590;53.366;5.212;2022-07-15T13:50:21;3.70;;;1.20;;
55692;SDS011;41590;53.366;5.212;2022-07-15T13:53:05;5.70;;;1.25;;
55692;SDS011;41590;53.366;5.212;2022-07-15T13:55:32;6.55;;;1.20;;
55692;SDS011;41590;53.366;5.212;2022-07-15T13:57:58;6.45;;;1.27;;
55692;SDS011;41590;53.366;5.212;2022-07-15T14:00:25;5.72;;;1.27;;
55692;SDS011;41590;53.366;5.212;2022-07-15T14:06:32;4.22;;;1.10;;
55692;SDS011;41590;53.366;5.212;2022-07-15T14:08:59;4.63;;;0.95;;
55692;SDS011;41590;53.366;5.212;2022-07-15T14:11:24;4.53;;;1.10;;
55692;SDS011;41590;53.366;5.212;2022-07-15T14:13:51;7.82;;;1.33;;
55692;SDS011;41590;53.366;5.212;2022-07-15T14:16:17;5.30;;;1.20;;
55692;SDS011;41590;53.366;5.212;2022-07-15T14:21:41;8.75;;;1.27;;
55692;SDS011;41590;53.366;5.212;2022-07-15T14:24:07;7.70;;;1.65;;
55692;SDS011;41590;53.366;5.212;2022-07-15T14:26:33;5.75;;;1.10;;
55692;SDS011;41590;53.366;5.212;2022-07-15T14:29:08;6.60;;;1.23;;
55692;SDS011;41590;53.366;5.212;2022-07-15T14:31:35;7.00;;;1.50;;
55692;SDS011;41590;53.366;5.212;2022-07-15T14:34:01;7.82;;;1.58;;
55692;SDS011;41590;53.366;5.212;2022-07-15T14:36:29;4.22;;;1.40;;
55692;SDS011;41590;53.366;5.212;2022-07-15T14:38:56;8.30;;;1.45;;
55692;SDS011;41590;53.366;5.212;2022-07-15T14:41:23;4.65;;;1.10;;
55692;SDS011;41590;53.366;5.212;2022-07-15T14:43:50;7.25;;;1.73;;
55692;SDS011;41590;53.366;5.212;2022-07-15T14:46:16;5.78;;;1.27;;
55692;SDS011;41590;53.366;5.212;2022-07-15T14:48:41;5.38;;;1.35;;
55692;SDS011;41590;53.366;5.212;2022-07-15T14:51:07;5.97;;;1.65;;
55692;SDS011;41590;53.366;5.212;2022-07-15T14:53:33;6.45;;;1.20;;
55692;SDS011;41590;53.366;5.212;2022-07-15T14:56:00;7.20;;;1.30;;
55692;SDS011;41590;53.366;5.212;2022-07-15T14:58:26;6.88;;;1.35;;
55692;SDS011;41590;53.366;5.212;2022-07-15T15:00:51;4.03;;;1.20;;
55692;SDS011;41590;53.366;5.212;2022-07-15T15:03:18;5.85;;;1.13;;
55692;SDS011;41590;53.366;5.212;2022-07-15T15:05:44;9.05;;;1.90;;
55692;SDS011;41590;53.366;5.212;2022-07-15T15:08:10;6.57;;;1.30;;
55692;SDS011;41590;53.366;5.212;2022-07-15T15:14:08;11.00;;;1.52;;
55692;SDS011;41590;53.366;5.212;2022-07-15T15:16:33;6.50;;;1.02;;
55692;SDS011;41590;53.366;5.212;2022-07-15T15:19:00;5.82;;;1.20;;
55692;SDS011;41590;53.366;5.212;2022-07-15T15:21:26;8.00;;;1.20;;
55692;SDS011;41590;53.366;5.212;2022-07-15T15:23:53;8.23;;;1.38;;
55692;SDS011;41590;53.366;5.212;2022-07-15T15:26:18;2.75;;;0.90;;
55692;SDS011;41590;53.366;5.212;2022-07-15T15:28:55;8.10;;;1.20;;
55692;SDS011;41590;53.366;5.212;2022-07-15T15:31:25;6.55;;;1.10;;
55692;SDS011;41590;53.366;5.212;2022-07-15T15:33:53;3.03;;;0.80;;
55692;SDS011;41590;53.366;5.212;2022-07-15T15:36:39;7.95;;;1.02;;
55692;SDS011;41590;53.366;5.212;2022-07-15T15:39:09;6.13;;;1.40;;
55692;SDS011;41590;53.366;5.212;2022-07-15T15:41:40;8.88;;;1.40;;
55692;SDS011;41590;53.366;5.212;2022-07-15T15:44:06;7.82;;;1.20;;
55692;SDS011;41590;53.366;5.212;2022-07-15T15:46:35;2.65;;;0.80;;
55692;SDS011;41590;53.366;5.212;2022-07-15T15:49:05;4.32;;;0.93;;
55692;SDS011;41590;53.366;5.212;2022-07-15T15:51:42;5.45;;;1.52;;
55692;SDS011;41590;53.366;5.212;2022-07-15T15:54:18;7.60;;;1.08;;
55692;SDS011;41590;53.366;5.212;2022-07-15T15:57:04;6.82;;;1.00;;
55692;SDS011;41590;53.366;5.212;2022-07-15T15:59:59;5.65;;;1.08;;
55692;SDS011;41590;53.366;5.212;2022-07-15T16:02:30;9.02;;;1.50;;
55692;SDS011;41590;53.366;5.212;2022-07-15T16:05:01;6.43;;;1.52;;
55692;SDS011;41590;53.366;5.212;2022-07-15T16:07:37;6.05;;;1.23;;
55692;SDS011;41590;53.366;5.212;2022-07-15T16:10:19;5.93;;;1.20;;
55692;SDS011;41590;53.366;5.212;2022-07-15T16:12:48;7.38;;;1.73;;
55692;SDS011;41590;53.366;5.212;2022-07-15T16:15:15;3.75;;;0.90;;
55692;SDS011;41590;53.366;5.212;2022-07-15T16:17:43;4.38;;;0.98;;
55692;SDS011;41590;53.366;5.212;2022-07-15T16:20:10;6.68;;;0.98;;
55692;SDS011;41590;53.366;5.212;2022-07-15T16:22:36;3.13;;;0.80;;
55692;SDS011;41590;53.366;5.212;2022-07-15T16:25:19;4.80;;;1.20;;
55692;SDS011;41590;53.366;5.212;2022-07-15T16:27:46;1.98;;;0.50;;
55692;SDS011;41590;53.366;5.212;2022-07-15T16:30:15;3.80;;;0.90;;
55692;SDS011;41590;53.366;5.212;2022-07-15T16:32:43;5.05;;;1.00;;
55692;SDS011;41590;53.366;5.212;2022-07-15T16:35:09;3.28;;;1.33;;
55692;SDS011;41590;53.366;5.212;2022-07-15T16:37:36;4.03;;;0.80;;
55692;SDS011;41590;53.366;5.212;2022-07-15T16:40:08;6.63;;;0.90;;
55692;SDS011;41590;53.366;5.212;2022-07-15T16:42:34;3.28;;;0.60;;
55692;SDS011;41590;53.366;5.212;2022-07-15T16:44:59;3.50;;;0.90;;
55692;SDS011;41590;53.366;5.212;2022-07-15T16:47:25;2.35;;;0.70;;
55692;SDS011;41590;53.366;5.212;2022-07-15T16:49:53;4.25;;;0.75;;
55692;SDS011;41590;53.366;5.212;2022-07-15T16:52:19;4.72;;;0.70;;
55692;SDS011;41590;53.366;5.212;2022-07-15T16:54:44;5.78;;;0.80;;
55692;SDS011;41590;53.366;5.212;2022-07-15T16:57:12;1.88;;;0.60;;
55692;SDS011;41590;53.366;5.212;2022-07-15T16:59:38;9.20;;;1.00;;
55692;SDS011;41590;53.366;5.212;2022-07-15T17:02:09;3.47;;;0.60;;
55692;SDS011;41590;53.366;5.212;2022-07-15T17:04:38;4.45;;;0.80;;
55692;SDS011;41590;53.366;5.212;2022-07-15T17:07:06;5.93;;;0.90;;
55692;SDS011;41590;53.366;5.212;2022-07-15T17:09:34;4.43;;;0.80;;
55692;SDS011;41590;53.366;5.212;2022-07-15T17:12:14;4.95;;;0.65;;
55692;SDS011;41590;53.366;5.212;2022-07-15T17:14:44;4.95;;;0.63;;
55692;SDS011;41590;53.366;5.212;2022-07-15T17:17:11;3.35;;;0.73;;
55692;SDS011;41590;53.366;5.212;2022-07-15T17:19:37;6.10;;;0.95;;
55692;SDS011;41590;53.366;5.212;2022-07-15T17:24:54;3.92;;;0.88;;
55692;SDS011;41590;53.366;5.212;2022-07-15T17:27:20;5.85;;;0.93;;
55692;SDS011;41590;53.366;5.212;2022-07-15T17:29:45;4.88;;;0.82;;
55692;SDS011;41590;53.366;5.212;2022-07-15T17:32:11;2.13;;;0.77;;
55692;SDS011;41590;53.366;5.212;2022-07-15T17:34:44;6.95;;;0.95;;